sensor_id;sensor_type;location;lat;lon;timestamp;P1;durP1;ratioP1;P2;durP2;ratioP2
3601;SDS011;1815;50.950;6.920;2022-08-21T00:01:19;19.07;;;15.33;;
3601;SDS011;1815;50.950;6.920;2022-08-21T00:03:51;14.77;;;13.03;;
3601;SDS011;1815;50.950;6.920;2022-08-21T00:06:18;14.30;;;12.80;;
3601;SDS011;1815;50.950;6.920;2022-08-21T00:08:44;13.60;;;11.33;;
3601;SDS011;1815;50.950;6.920;2022-08-21T00:11:10;13.37;;;11.13;;
3601;SDS011;1815;50.950;6.920;2022-08-21T00:13:36;9.10;;;8.20;;
3601;SDS011;1815;50.950;6.920;2022-08-21T00:16:02;10.60;;;8.63;;
3601;SDS011;1815;50.950;6.920;2022-08-21T00:18:29;13.70;;;7.63;;
3601;SDS011;1815;50.950;6.920;2022-08-21T00:20:55;7.53;;;6.40;;
3601;SDS011;1815;50.950;6.920;2022-08-21T00:23:21;9.30;;;7.70;;
3601;SDS011;1815;50.950;6.920;2022-08-21T00:25:47;10.10;;;8.43;;
3601;SDS011;1815;50.950;6.920;2022-08-21T00:28:13;14.03;;;10.63;;
3601;SDS011;1815;50.950;6.920;2022-08-21T00:30:41;13.20;;;9.90;;
3601;SDS011;1815;50.950;6.920;2022-08-21T00:33:07;10.00;;;8.20;;
3601;SDS011;1815;50.950;6.920;2022-08-21T00:35:35;10.53;;;7.00;;
3601;SDS011;1815;50.950;6.920;2022-08-21T00:38:03;8.80;;;6.70;;
3601;SDS011;1815;50.950;6.920;2022-08-21T00:40:32;9.40;;;5.67;;
3601;SDS011;1815;50.950;6.920;2022-08-21T00:43:02;9.97;;;6.63;;
3601;SDS011;1815;50.950;6.920;2022-08-21T00:45:30;6.60;;;5.53;;
3601;SDS011;1815;50.950;6.920;2022-08-21T00:47:57;6.70;;;4.70;;
3601;SDS011;1815;50.950;6.920;2022-08-21T00:50:24;7.50;;;5.10;;
3601;SDS011;1815;50.950;6.920;2022-08-21T00:52:54;6.20;;;4.20;;
3601;SDS011;1815;50.950;6.920;2022-08-21T00:55:21;4.50;;;3.27;;
3601;SDS011;1815;50.950;6.920;2022-08-21T00:57:49;5.00;;;3.73;;
3601;SDS011;1815;50.950;6.920;2022-08-21T01:00:21;4.60;;;3.30;;
3601;SDS011;1815;50.950;6.920;2022-08-21T01:02:49;5.00;;;3.60;;
3601;SDS011;1815;50.950;6.920;2022-08-21T01:05:15;5.30;;;3.70;;
3601;SDS011;1815;50.950;6.920;2022-08-21T01:07:42;4.30;;;2.97;;
3601;SDS011;1815;50.950;6.920;2022-08-21T01:10:09;5.17;;;4.07;;
3601;SDS011;1815;50.950;6.920;2022-08-21T01:12:37;6.43;;;3.83;;
3601;SDS011;1815;50.950;6.920;2022-08-21T01:15:05;6.60;;;3.90;;
3601;SDS011;1815;50.950;6.920;2022-08-21T01:17:32;5.30;;;3.57;;
3601;SDS011;1815;50.950;6.920;2022-08-21T01:20:00;8.30;;;4.27;;
3601;SDS011;1815;50.950;6.920;2022-08-21T01:22:30;6.47;;;4.47;;
3601;SDS011;1815;50.950;6.920;2022-08-21T01:24:55;9.40;;;3.80;;
3601;SDS011;1815;50.950;6.920;2022-08-21T01:27:21;5.03;;;3.30;;
3601;SDS011;1815;50.950;6.920;2022-08-21T01:29:54;7.07;;;3.83;;
3601;SDS011;1815;50.950;6.920;2022-08-21T01:32:24;6.63;;;4.07;;
3601;SDS011;1815;50.950;6.920;2022-08-21T01:34:50;4.30;;;3.40;;
3601;SDS011;1815;50.950;6.920;2022-08-21T01:37:17;5.73;;;4.27;;
3601;SDS011;1815;50.950;6.920;2022-08-21T01:39:44;7.20;;;3.80;;
3601;SDS011;1815;50.950;6.920;2022-08-21T01:42:11;5.87;;;3.83;;
3601;SDS011;1815;50.950;6.920;2022-08-21T01:44:37;12.60;;;4.57;;
3601;SDS011;1815;50.950;6.920;2022-08-21T01:47:04;6.40;;;4.00;;
3601;SDS011;1815;50.950;6.920;2022-08-21T01:49:33;5.03;;;3.83;;
3601;SDS011;1815;50.950;6.920;2022-08-21T01:51:59;5.87;;;4.10;;
3601;SDS011;1815;50.950;6.920;2022-08-21T01:54:26;10.03;;;4.73;;
3601;SDS011;1815;50.950;6.920;2022-08-21T01:56:52;5.13;;;4.30;;
3601;SDS011;1815;50.950;6.920;2022-08-21T01:59:20;7.93;;;4.57;;
3601;SDS011;1815;50.950;6.920;2022-08-21T02:01:47;7.80;;;5.00;;
3601;SDS011;1815;50.950;6.920;2022-08-21T02:04:14;6.83;;;4.60;;
3601;SDS011;1815;50.950;6.920;2022-08-21T02:06:40;6.27;;;4.20;;
3601;SDS011;1815;50.950;6.920;2022-08-21T02:09:07;6.33;;;4.90;;
3601;SDS011;1815;50.950;6.920;2022-08-21T02:11:35;6.13;;;4.50;;
3601;SDS011;1815;50.950;6.920;2022-08-21T02:14:01;6.70;;;4.30;;
3601;SDS011;1815;50.950;6.920;2022-08-21T02:16:27;8.13;;;5.50;;
3601;SDS011;1815;50.950;6.920;2022-08-21T02:18:53;8.17;;;3.80;;
3601;SDS011;1815;50.950;6.920;2022-08-21T02:21:19;6.03;;;4.47;;
3601;SDS011;1815;50.950;6.920;2022-08-21T02:23:45;5.50;;;4.23;;
3601;SDS011;1815;50.950;6.920;2022-08-21T02:26:11;5.60;;;3.93;;
3601;SDS011;1815;50.950;6.920;2022-08-21T02:28:37;4.50;;;4.10;;
3601;SDS011;1815;50.950;6.920;2022-08-21T02:31:04;5.90;;;4.00;;
3601;SDS011;1815;50.950;6.920;2022-08-21T02:33:31;6.80;;;4.07;;
3601;SDS011;1815;50.950;6.920;2022-08-21T02:35:58;5.60;;;4.03;;
3601;SDS011;1815;50.950;6.920;2022-08-21T02:38:26;6.60;;;4.00;;
3601;SDS011;1815;50.950;6.920;2022-08-21T02:40:55;6.10;;;3.70;;
3601;SDS011;1815;50.950;6.920;2022-08-21T02:43:22;7.60;;;4.10;;
3601;SDS011;1815;50.950;6.920;2022-08-21T02:45:49;4.43;;;3.87;;
3601;SDS011;1815;50.950;6.920;2022-08-21T02:48:17;5.77;;;3.97;;
3601;SDS011;1815;50.950;6.920;2022-08-21T02:51:07;5.93;;;4.30;;
3601;SDS011;1815;50.950;6.920;2022-08-21T02:53:33;4.33;;;3.83;;
3601;SDS011;1815;50.950;6.920;2022-08-21T02:56:00;5.80;;;3.43;;
3601;SDS011;1815;50.950;6.920;2022-08-21T02:58:32;4.83;;;4.37;;
3601;SDS011;1815;50.950;6.920;2022-08-21T03:01:00;6.10;;;3.80;;
3601;SDS011;1815;50.950;6.920;2022-08-21T03:03:26;5.60;;;4.00;;
3601;SDS011;1815;50.950;6.920;2022-08-21T03:05:54;6.43;;;3.60;;
3601;SDS011;1815;50.950;6.920;2022-08-21T03:08:20;6.50;;;4.00;;
3601;SDS011;1815;50.950;6.920;2022-08-21T03:10:48;6.53;;;3.87;;
3601;SDS011;1815;50.950;6.920;2022-08-21T03:13:16;6.90;;;3.93;;
3601;SDS011;1815;50.950;6.920;2022-08-21T03:15:42;5.47;;;3.90;;
3601;SDS011;1815;50.950;6.920;2022-08-21T03:18:09;7.23;;;4.00;;
3601;SDS011;1815;50.950;6.920;2022-08-21T03:20:36;4.53;;;3.90;;
3601;SDS011;1815;50.950;6.920;2022-08-21T03:23:04;6.53;;;4.00;;
3601;SDS011;1815;50.950;6.920;2022-08-21T03:25:30;4.93;;;4.40;;
3601;SDS011;1815;50.950;6.920;2022-08-21T03:27:58;4.57;;;4.03;;
3601;SDS011;1815;50.950;6.920;2022-08-21T03:30:25;5.23;;;4.07;;
3601;SDS011;1815;50.950;6.920;2022-08-21T03:32:50;4.90;;;3.30;;
3601;SDS011;1815;50.950;6.920;2022-08-21T03:35:17;5.70;;;3.90;;
3601;SDS011;1815;50.950;6.920;2022-08-21T03:37:44;5.93;;;4.33;;
3601;SDS011;1815;50.950;6.920;2022-08-21T03:40:11;6.33;;;4.80;;
3601;SDS011;1815;50.950;6.920;2022-08-21T03:42:39;5.20;;;4.60;;
3601;SDS011;1815;50.950;6.920;2022-08-21T03:45:04;5.83;;;4.20;;
3601;SDS011;1815;50.950;6.920;2022-08-21T03:47:31;9.40;;;5.30;;
3601;SDS011;1815;50.950;6.920;2022-08-21T03:49:57;10.70;;;5.60;;
3601;SDS011;1815;50.950;6.920;2022-08-21T03:52:22;9.83;;;6.80;;
3601;SDS011;1815;50.950;6.920;2022-08-21T03:54:48;6.97;;;5.90;;
3601;SDS011;1815;50.950;6.920;2022-08-21T03:57:15;7.30;;;6.53;;
3601;SDS011;1815;50.950;6.920;2022-08-21T03:59:41;7.90;;;7.10;;
3601;SDS011;1815;50.950;6.920;2022-08-21T04:02:08;9.03;;;6.93;;
3601;SDS011;1815;50.950;6.920;2022-08-21T04:04:35;8.10;;;7.30;;
3601;SDS011;1815;50.950;6.920;2022-08-21T04:07:01;7.10;;;6.27;;
3601;SDS011;1815;50.950;6.920;2022-08-21T04:09:28;9.53;;;7.33;;
3601;SDS011;1815;50.950;6.920;2022-08-21T04:11:55;10.43;;;8.37;;
3601;SDS011;1815;50.950;6.920;2022-08-21T04:14:23;7.27;;;6.57;;
3601;SDS011;1815;50.950;6.920;2022-08-21T04:16:48;10.27;;;7.10;;
3601;SDS011;1815;50.950;6.920;2022-08-21T04:19:14;9.33;;;7.63;;
3601;SDS011;1815;50.950;6.920;2022-08-21T04:21:40;7.80;;;7.00;;
3601;SDS011;1815;50.950;6.920;2022-08-21T04:24:07;8.03;;;6.80;;
3601;SDS011;1815;50.950;6.920;2022-08-21T04:26:35;7.53;;;6.73;;
3601;SDS011;1815;50.950;6.920;2022-08-21T04:29:02;7.70;;;7.00;;
3601;SDS011;1815;50.950;6.920;2022-08-21T04:31:33;7.10;;;6.50;;
3601;SDS011;1815;50.950;6.920;2022-08-21T04:34:01;7.40;;;6.40;;
3601;SDS011;1815;50.950;6.920;2022-08-21T04:36:28;6.87;;;6.27;;
3601;SDS011;1815;50.950;6.920;2022-08-21T04:38:54;7.07;;;6.30;;
3601;SDS011;1815;50.950;6.920;2022-08-21T04:41:19;6.73;;;6.10;;
3601;SDS011;1815;50.950;6.920;2022-08-21T04:43:45;5.90;;;5.30;;
3601;SDS011;1815;50.950;6.920;2022-08-21T04:46:11;8.73;;;6.73;;
3601;SDS011;1815;50.950;6.920;2022-08-21T04:48:37;10.43;;;6.17;;
3601;SDS011;1815;50.950;6.920;2022-08-21T04:51:06;8.83;;;6.50;;
3601;SDS011;1815;50.950;6.920;2022-08-21T04:53:43;7.40;;;5.17;;
3601;SDS011;1815;50.950;6.920;2022-08-21T04:56:25;6.70;;;5.20;;
3601;SDS011;1815;50.950;6.920;2022-08-21T04:58:57;6.87;;;4.93;;
3601;SDS011;1815;50.950;6.920;2022-08-21T05:01:25;6.07;;;5.07;;
3601;SDS011;1815;50.950;6.920;2022-08-21T05:03:54;6.40;;;4.27;;
3601;SDS011;1815;50.950;6.920;2022-08-21T05:06:23;5.90;;;5.30;;
3601;SDS011;1815;50.950;6.920;2022-08-21T05:08:50;7.37;;;3.80;;
3601;SDS011;1815;50.950;6.920;2022-08-21T05:11:19;4.60;;;4.13;;
3601;SDS011;1815;50.950;6.920;2022-08-21T05:13:45;7.00;;;4.90;;
3601;SDS011;1815;50.950;6.920;2022-08-21T05:16:12;4.80;;;3.73;;
3601;SDS011;1815;50.950;6.920;2022-08-21T05:18:37;4.40;;;4.00;;
3601;SDS011;1815;50.950;6.920;2022-08-21T05:21:03;5.67;;;4.07;;
3601;SDS011;1815;50.950;6.920;2022-08-21T05:23:29;5.63;;;4.97;;
3601;SDS011;1815;50.950;6.920;2022-08-21T05:25:55;8.93;;;4.57;;
3601;SDS011;1815;50.950;6.920;2022-08-21T05:28:21;6.77;;;4.60;;
3601;SDS011;1815;50.950;6.920;2022-08-21T05:30:48;4.67;;;3.60;;
3601;SDS011;1815;50.950;6.920;2022-08-21T05:33:14;6.20;;;3.57;;
3601;SDS011;1815;50.950;6.920;2022-08-21T05:35:40;5.17;;;2.60;;
3601;SDS011;1815;50.950;6.920;2022-08-21T05:38:06;5.13;;;3.63;;
3601;SDS011;1815;50.950;6.920;2022-08-21T05:40:32;4.57;;;3.03;;
3601;SDS011;1815;50.950;6.920;2022-08-21T05:42:58;5.37;;;3.23;;
3601;SDS011;1815;50.950;6.920;2022-08-21T05:45:33;6.50;;;4.00;;
3601;SDS011;1815;50.950;6.920;2022-08-21T05:48:05;5.13;;;3.43;;
3601;SDS011;1815;50.950;6.920;2022-08-21T05:50:35;3.63;;;2.90;;
3601;SDS011;1815;50.950;6.920;2022-08-21T05:53:02;3.90;;;3.50;;
3601;SDS011;1815;50.950;6.920;2022-08-21T05:55:28;6.73;;;3.30;;
3601;SDS011;1815;50.950;6.920;2022-08-21T05:57:54;5.90;;;2.63;;
3601;SDS011;1815;50.950;6.920;2022-08-21T06:00:20;4.70;;;3.17;;
3601;SDS011;1815;50.950;6.920;2022-08-21T06:02:48;4.70;;;3.03;;
3601;SDS011;1815;50.950;6.920;2022-08-21T06:05:16;8.13;;;3.63;;
3601;SDS011;1815;50.950;6.920;2022-08-21T06:07:43;5.20;;;3.00;;
3601;SDS011;1815;50.950;6.920;2022-08-21T06:10:09;5.80;;;3.20;;
3601;SDS011;1815;50.950;6.920;2022-08-21T06:12:35;4.20;;;3.20;;
3601;SDS011;1815;50.950;6.920;2022-08-21T06:15:02;3.20;;;2.83;;
3601;SDS011;1815;50.950;6.920;2022-08-21T06:17:28;6.60;;;2.33;;
3601;SDS011;1815;50.950;6.920;2022-08-21T06:19:54;3.70;;;2.50;;
3601;SDS011;1815;50.950;6.920;2022-08-21T06:22:20;5.80;;;3.97;;
3601;SDS011;1815;50.950;6.920;2022-08-21T06:24:46;7.03;;;3.17;;
3601;SDS011;1815;50.950;6.920;2022-08-21T06:27:12;5.33;;;2.60;;
3601;SDS011;1815;50.950;6.920;2022-08-21T06:29:39;6.27;;;2.50;;
3601;SDS011;1815;50.950;6.920;2022-08-21T06:32:04;5.90;;;2.20;;
3601;SDS011;1815;50.950;6.920;2022-08-21T06:34:37;8.97;;;2.37;;
3601;SDS011;1815;50.950;6.920;2022-08-21T06:37:04;7.87;;;2.27;;
3601;SDS011;1815;50.950;6.920;2022-08-21T06:39:30;6.30;;;2.00;;
3601;SDS011;1815;50.950;6.920;2022-08-21T06:41:56;4.50;;;1.60;;
3601;SDS011;1815;50.950;6.920;2022-08-21T06:44:27;4.20;;;1.80;;
3601;SDS011;1815;50.950;6.920;2022-08-21T06:46:53;3.07;;;1.43;;
3601;SDS011;1815;50.950;6.920;2022-08-21T06:49:19;3.50;;;2.10;;
3601;SDS011;1815;50.950;6.920;2022-08-21T06:51:45;3.97;;;1.30;;
3601;SDS011;1815;50.950;6.920;2022-08-21T06:54:11;3.67;;;1.23;;
3601;SDS011;1815;50.950;6.920;2022-08-21T06:56:36;6.00;;;1.60;;
3601;SDS011;1815;50.950;6.920;2022-08-21T06:59:03;3.70;;;1.40;;
3601;SDS011;1815;50.950;6.920;2022-08-21T07:01:30;3.20;;;1.60;;
3601;SDS011;1815;50.950;6.920;2022-08-21T07:03:57;2.57;;;1.20;;
3601;SDS011;1815;50.950;6.920;2022-08-21T07:06:23;5.83;;;1.30;;
3601;SDS011;1815;50.950;6.920;2022-08-21T07:08:50;2.93;;;1.17;;
3601;SDS011;1815;50.950;6.920;2022-08-21T07:11:21;4.30;;;1.47;;
3601;SDS011;1815;50.950;6.920;2022-08-21T07:13:48;3.67;;;1.00;;
3601;SDS011;1815;50.950;6.920;2022-08-21T07:16:16;2.70;;;1.20;;
3601;SDS011;1815;50.950;6.920;2022-08-21T07:18:42;2.63;;;1.00;;
3601;SDS011;1815;50.950;6.920;2022-08-21T07:21:08;2.57;;;0.90;;
3601;SDS011;1815;50.950;6.920;2022-08-21T07:23:36;4.80;;;1.03;;
3601;SDS011;1815;50.950;6.920;2022-08-21T07:26:03;6.00;;;1.10;;
3601;SDS011;1815;50.950;6.920;2022-08-21T07:28:30;3.93;;;1.40;;
3601;SDS011;1815;50.950;6.920;2022-08-21T07:30:57;4.07;;;1.00;;
3601;SDS011;1815;50.950;6.920;2022-08-21T07:33:24;3.23;;;1.00;;
3601;SDS011;1815;50.950;6.920;2022-08-21T07:35:51;2.03;;;1.00;;
3601;SDS011;1815;50.950;6.920;2022-08-21T07:38:17;2.20;;;1.10;;
3601;SDS011;1815;50.950;6.920;2022-08-21T07:40:44;3.10;;;1.00;;
3601;SDS011;1815;50.950;6.920;2022-08-21T07:43:11;3.57;;;0.97;;
3601;SDS011;1815;50.950;6.920;2022-08-21T07:45:37;2.47;;;0.90;;
3601;SDS011;1815;50.950;6.920;2022-08-21T07:48:04;3.10;;;1.03;;
3601;SDS011;1815;50.950;6.920;2022-08-21T07:50:30;2.43;;;1.20;;
3601;SDS011;1815;50.950;6.920;2022-08-21T07:52:56;2.57;;;0.90;;
3601;SDS011;1815;50.950;6.920;2022-08-21T07:55:22;2.93;;;1.10;;
3601;SDS011;1815;50.950;6.920;2022-08-21T07:57:48;3.13;;;1.00;;
3601;SDS011;1815;50.950;6.920;2022-08-21T08:00:15;3.30;;;1.00;;
3601;SDS011;1815;50.950;6.920;2022-08-21T08:02:45;2.20;;;0.93;;
3601;SDS011;1815;50.950;6.920;2022-08-21T08:05:14;2.87;;;1.17;;
3601;SDS011;1815;50.950;6.920;2022-08-21T08:07:41;3.37;;;0.97;;
3601;SDS011;1815;50.950;6.920;2022-08-21T08:10:07;2.00;;;0.87;;
3601;SDS011;1815;50.950;6.920;2022-08-21T08:12:34;2.57;;;0.80;;
3601;SDS011;1815;50.950;6.920;2022-08-21T08:15:04;2.73;;;0.97;;
3601;SDS011;1815;50.950;6.920;2022-08-21T08:17:32;4.20;;;1.00;;
3601;SDS011;1815;50.950;6.920;2022-08-21T08:19:58;2.50;;;0.90;;
3601;SDS011;1815;50.950;6.920;2022-08-21T08:22:28;4.13;;;0.97;;
3601;SDS011;1815;50.950;6.920;2022-08-21T08:24:54;2.90;;;0.83;;
3601;SDS011;1815;50.950;6.920;2022-08-21T08:27:20;3.70;;;1.00;;
3601;SDS011;1815;50.950;6.920;2022-08-21T08:29:46;3.97;;;1.03;;
3601;SDS011;1815;50.950;6.920;2022-08-21T08:32:13;2.93;;;0.90;;
3601;SDS011;1815;50.950;6.920;2022-08-21T08:34:39;3.40;;;0.80;;
3601;SDS011;1815;50.950;6.920;2022-08-21T08:37:05;2.27;;;0.90;;
3601;SDS011;1815;50.950;6.920;2022-08-21T08:39:33;2.63;;;0.80;;
3601;SDS011;1815;50.950;6.920;2022-08-21T08:42:09;2.30;;;0.80;;
3601;SDS011;1815;50.950;6.920;2022-08-21T08:44:41;2.13;;;1.07;;
3601;SDS011;1815;50.950;6.920;2022-08-21T08:47:08;2.83;;;1.10;;
3601;SDS011;1815;50.950;6.920;2022-08-21T08:49:42;1.83;;;0.80;;
3601;SDS011;1815;50.950;6.920;2022-08-21T08:52:27;2.97;;;0.90;;
3601;SDS011;1815;50.950;6.920;2022-08-21T08:57:34;3.30;;;0.80;;
3601;SDS011;1815;50.950;6.920;2022-08-21T09:00:05;2.80;;;0.80;;
3601;SDS011;1815;50.950;6.920;2022-08-21T09:02:35;3.23;;;1.37;;
3601;SDS011;1815;50.950;6.920;2022-08-21T09:05:04;1.50;;;0.70;;
3601;SDS011;1815;50.950;6.920;2022-08-21T09:10:21;3.77;;;1.10;;
3601;SDS011;1815;50.950;6.920;2022-08-21T09:29:29;4.33;;;1.30;;
3601;SDS011;1815;50.950;6.920;2022-08-21T09:31:58;2.43;;;0.80;;
3601;SDS011;1815;50.950;6.920;2022-08-21T09:34:25;3.07;;;1.00;;
3601;SDS011;1815;50.950;6.920;2022-08-21T09:36:52;3.50;;;1.23;;
3601;SDS011;1815;50.950;6.920;2022-08-21T09:39:25;3.77;;;1.37;;
3601;SDS011;1815;50.950;6.920;2022-08-21T09:41:57;3.47;;;1.00;;
3601;SDS011;1815;50.950;6.920;2022-08-21T09:44:28;3.00;;;1.00;;
3601;SDS011;1815;50.950;6.920;2022-08-21T09:46:58;5.30;;;1.70;;
3601;SDS011;1815;50.950;6.920;2022-08-21T09:49:34;4.67;;;1.00;;
3601;SDS011;1815;50.950;6.920;2022-08-21T09:52:02;4.00;;;0.90;;
3601;SDS011;1815;50.950;6.920;2022-08-21T09:54:38;3.50;;;0.73;;
3601;SDS011;1815;50.950;6.920;2022-08-21T09:59:53;2.13;;;0.90;;
3601;SDS011;1815;50.950;6.920;2022-08-21T10:02:30;3.67;;;1.00;;
3601;SDS011;1815;50.950;6.920;2022-08-21T10:04:59;3.30;;;1.00;;
3601;SDS011;1815;50.950;6.920;2022-08-21T10:07:41;1.90;;;0.77;;
3601;SDS011;1815;50.950;6.920;2022-08-21T10:10:20;2.40;;;1.10;;
3601;SDS011;1815;50.950;6.920;2022-08-21T10:21:27;5.43;;;1.07;;
3601;SDS011;1815;50.950;6.920;2022-08-21T10:30:51;2.83;;;1.00;;
3601;SDS011;1815;50.950;6.920;2022-08-21T10:36:00;1.97;;;0.70;;
3601;SDS011;1815;50.950;6.920;2022-08-21T10:44:30;3.30;;;1.17;;
3601;SDS011;1815;50.950;6.920;2022-08-21T10:47:26;4.00;;;1.30;;
3601;SDS011;1815;50.950;6.920;2022-08-21T10:50:10;4.20;;;1.10;;
3601;SDS011;1815;50.950;6.920;2022-08-21T10:55:36;2.43;;;0.80;;
3601;SDS011;1815;50.950;6.920;2022-08-21T10:58:08;2.70;;;0.90;;
3601;SDS011;1815;50.950;6.920;2022-08-21T11:01:07;2.80;;;0.80;;
3601;SDS011;1815;50.950;6.920;2022-08-21T11:03:42;2.20;;;0.80;;
3601;SDS011;1815;50.950;6.920;2022-08-21T11:06:27;2.53;;;0.90;;
3601;SDS011;1815;50.950;6.920;2022-08-21T11:08:57;3.30;;;1.10;;
3601;SDS011;1815;50.950;6.920;2022-08-21T11:11:32;3.03;;;0.93;;
3601;SDS011;1815;50.950;6.920;2022-08-21T11:14:09;2.70;;;0.93;;
3601;SDS011;1815;50.950;6.920;2022-08-21T11:30:10;2.53;;;0.80;;
3601;SDS011;1815;50.950;6.920;2022-08-21T11:35:34;2.10;;;1.10;;
3601;SDS011;1815;50.950;6.920;2022-08-21T11:41:13;2.20;;;0.80;;
3601;SDS011;1815;50.950;6.920;2022-08-21T11:46:44;2.77;;;0.83;;
3601;SDS011;1815;50.950;6.920;2022-08-21T11:49:23;1.70;;;0.77;;
3601;SDS011;1815;50.950;6.920;2022-08-21T11:52:16;3.30;;;0.83;;
3601;SDS011;1815;50.950;6.920;2022-08-21T11:54:49;2.40;;;0.80;;
3601;SDS011;1815;50.950;6.920;2022-08-21T11:57:19;2.37;;;0.80;;
3601;SDS011;1815;50.950;6.920;2022-08-21T12:02:21;2.80;;;0.80;;
3601;SDS011;1815;50.950;6.920;2022-08-21T12:04:56;2.93;;;0.70;;
3601;SDS011;1815;50.950;6.920;2022-08-21T12:07:37;2.93;;;1.00;;
3601;SDS011;1815;50.950;6.920;2022-08-21T12:10:11;2.13;;;1.00;;
3601;SDS011;1815;50.950;6.920;2022-08-21T12:12:43;1.90;;;0.60;;
3601;SDS011;1815;50.950;6.920;2022-08-21T12:15:27;2.77;;;0.90;;
3601;SDS011;1815;50.950;6.920;2022-08-21T12:17:59;2.90;;;1.10;;
3601;SDS011;1815;50.950;6.920;2022-08-21T12:20:41;1.50;;;0.70;;
3601;SDS011;1815;50.950;6.920;2022-08-21T12:25:39;2.87;;;0.90;;
3601;SDS011;1815;50.950;6.920;2022-08-21T12:28:15;3.60;;;0.90;;
3601;SDS011;1815;50.950;6.920;2022-08-21T12:30:47;2.73;;;0.67;;
3601;SDS011;1815;50.950;6.920;2022-08-21T12:33:24;2.27;;;0.73;;
3601;SDS011;1815;50.950;6.920;2022-08-21T12:36:02;2.60;;;0.80;;
3601;SDS011;1815;50.950;6.920;2022-08-21T12:38:33;2.53;;;0.80;;
3601;SDS011;1815;50.950;6.920;2022-08-21T12:41:15;4.77;;;0.97;;
3601;SDS011;1815;50.950;6.920;2022-08-21T12:43:47;2.77;;;0.97;;
3601;SDS011;1815;50.950;6.920;2022-08-21T12:46:22;5.03;;;0.80;;
3601;SDS011;1815;50.950;6.920;2022-08-21T12:49:02;3.97;;;1.00;;
3601;SDS011;1815;50.950;6.920;2022-08-21T12:51:47;2.57;;;0.90;;
3601;SDS011;1815;50.950;6.920;2022-08-21T12:54:27;2.43;;;1.23;;
3601;SDS011;1815;50.950;6.920;2022-08-21T12:56:55;3.07;;;1.10;;
3601;SDS011;1815;50.950;6.920;2022-08-21T12:59:31;3.20;;;0.90;;
3601;SDS011;1815;50.950;6.920;2022-08-21T13:02:03;3.63;;;0.80;;
3601;SDS011;1815;50.950;6.920;2022-08-21T13:04:38;2.40;;;0.77;;
3601;SDS011;1815;50.950;6.920;2022-08-21T13:07:07;4.00;;;1.40;;
3601;SDS011;1815;50.950;6.920;2022-08-21T13:09:42;4.83;;;2.00;;
3601;SDS011;1815;50.950;6.920;2022-08-21T13:12:16;5.73;;;1.67;;
3601;SDS011;1815;50.950;6.920;2022-08-21T13:14:45;3.00;;;0.70;;
3601;SDS011;1815;50.950;6.920;2022-08-21T13:17:16;2.47;;;0.73;;
3601;SDS011;1815;50.950;6.920;2022-08-21T13:19:54;4.77;;;2.10;;
3601;SDS011;1815;50.950;6.920;2022-08-21T13:22:23;3.70;;;1.83;;
3601;SDS011;1815;50.950;6.920;2022-08-21T13:24:49;4.27;;;2.10;;
3601;SDS011;1815;50.950;6.920;2022-08-21T13:27:21;3.20;;;1.10;;
3601;SDS011;1815;50.950;6.920;2022-08-21T13:29:48;2.00;;;0.80;;
3601;SDS011;1815;50.950;6.920;2022-08-21T13:32:26;1.90;;;0.70;;
3601;SDS011;1815;50.950;6.920;2022-08-21T13:34:54;3.40;;;0.90;;
3601;SDS011;1815;50.950;6.920;2022-08-21T13:37:20;3.30;;;0.90;;
3601;SDS011;1815;50.950;6.920;2022-08-21T13:39:51;4.10;;;1.07;;
3601;SDS011;1815;50.950;6.920;2022-08-21T13:42:17;2.80;;;1.27;;
3601;SDS011;1815;50.950;6.920;2022-08-21T13:44:45;5.20;;;1.83;;
3601;SDS011;1815;50.950;6.920;2022-08-21T13:47:13;6.37;;;2.50;;
3601;SDS011;1815;50.950;6.920;2022-08-21T13:49:42;3.73;;;1.87;;
3601;SDS011;1815;50.950;6.920;2022-08-21T13:52:17;2.40;;;1.20;;
3601;SDS011;1815;50.950;6.920;2022-08-21T13:54:51;5.40;;;1.67;;
3601;SDS011;1815;50.950;6.920;2022-08-21T13:57:44;4.00;;;2.17;;
3601;SDS011;1815;50.950;6.920;2022-08-21T14:02:42;3.63;;;1.40;;
3601;SDS011;1815;50.950;6.920;2022-08-21T14:05:15;3.43;;;1.03;;
3601;SDS011;1815;50.950;6.920;2022-08-21T14:07:45;2.70;;;0.90;;
3601;SDS011;1815;50.950;6.920;2022-08-21T14:10:16;3.43;;;0.90;;
3601;SDS011;1815;50.950;6.920;2022-08-21T14:12:51;4.60;;;1.73;;
3601;SDS011;1815;50.950;6.920;2022-08-21T14:15:23;3.03;;;1.00;;
3601;SDS011;1815;50.950;6.920;2022-08-21T14:17:53;4.57;;;1.07;;
3601;SDS011;1815;50.950;6.920;2022-08-21T14:20:57;3.75;;;0.90;;
3601;SDS011;1815;50.950;6.920;2022-08-21T14:23:11;2.97;;;0.87;;
3601;SDS011;1815;50.950;6.920;2022-08-21T14:25:48;3.70;;;1.80;;
3601;SDS011;1815;50.950;6.920;2022-08-21T14:28:24;3.80;;;1.77;;
3601;SDS011;1815;50.950;6.920;2022-08-21T14:30:50;3.67;;;1.33;;
3601;SDS011;1815;50.950;6.920;2022-08-21T14:33:28;3.53;;;1.50;;
3601;SDS011;1815;50.950;6.920;2022-08-21T14:35:58;4.43;;;1.20;;
3601;SDS011;1815;50.950;6.920;2022-08-21T14:38:26;2.20;;;1.20;;
3601;SDS011;1815;50.950;6.920;2022-08-21T14:40:55;2.90;;;1.50;;
3601;SDS011;1815;50.950;6.920;2022-08-21T14:43:23;4.17;;;1.47;;
3601;SDS011;1815;50.950;6.920;2022-08-21T14:45:57;2.73;;;1.17;;
3601;SDS011;1815;50.950;6.920;2022-08-21T14:48:26;4.73;;;2.77;;
3601;SDS011;1815;50.950;6.920;2022-08-21T14:50:51;6.80;;;4.70;;
3601;SDS011;1815;50.950;6.920;2022-08-21T14:53:17;8.60;;;7.50;;
3601;SDS011;1815;50.950;6.920;2022-08-21T14:55:43;9.40;;;5.27;;
3601;SDS011;1815;50.950;6.920;2022-08-21T14:58:27;10.20;;;4.40;;
3601;SDS011;1815;50.950;6.920;2022-08-21T15:00:53;4.27;;;1.43;;
3601;SDS011;1815;50.950;6.920;2022-08-21T15:03:20;2.43;;;1.27;;
3601;SDS011;1815;50.950;6.920;2022-08-21T15:05:49;2.00;;;0.80;;
3601;SDS011;1815;50.950;6.920;2022-08-21T15:08:15;2.23;;;0.80;;
3601;SDS011;1815;50.950;6.920;2022-08-21T15:10:42;6.03;;;1.70;;
3601;SDS011;1815;50.950;6.920;2022-08-21T15:13:09;5.77;;;1.13;;
3601;SDS011;1815;50.950;6.920;2022-08-21T15:15:42;3.17;;;0.90;;
3601;SDS011;1815;50.950;6.920;2022-08-21T15:18:10;2.30;;;1.20;;
3601;SDS011;1815;50.950;6.920;2022-08-21T15:20:36;3.07;;;1.30;;
3601;SDS011;1815;50.950;6.920;2022-08-21T15:23:03;2.60;;;1.00;;
3601;SDS011;1815;50.950;6.920;2022-08-21T15:25:30;3.97;;;2.70;;
3601;SDS011;1815;50.950;6.920;2022-08-21T15:27:56;8.17;;;7.20;;
3601;SDS011;1815;50.950;6.920;2022-08-21T15:30:22;8.30;;;6.23;;
3601;SDS011;1815;50.950;6.920;2022-08-21T15:32:48;9.57;;;8.03;;
3601;SDS011;1815;50.950;6.920;2022-08-21T15:35:14;10.43;;;7.53;;
3601;SDS011;1815;50.950;6.920;2022-08-21T15:37:40;4.57;;;3.50;;
3601;SDS011;1815;50.950;6.920;2022-08-21T15:40:06;3.53;;;2.43;;
3601;SDS011;1815;50.950;6.920;2022-08-21T15:42:33;6.60;;;4.70;;
3601;SDS011;1815;50.950;6.920;2022-08-21T15:44:59;4.63;;;2.83;;
3601;SDS011;1815;50.950;6.920;2022-08-21T15:47:27;5.37;;;2.33;;
3601;SDS011;1815;50.950;6.920;2022-08-21T15:49:55;5.93;;;4.23;;
3601;SDS011;1815;50.950;6.920;2022-08-21T15:52:22;5.87;;;3.70;;
3601;SDS011;1815;50.950;6.920;2022-08-21T15:54:48;3.33;;;2.20;;
3601;SDS011;1815;50.950;6.920;2022-08-21T15:57:15;4.23;;;1.30;;
3601;SDS011;1815;50.950;6.920;2022-08-21T15:59:47;4.10;;;2.30;;
3601;SDS011;1815;50.950;6.920;2022-08-21T16:02:17;4.30;;;2.00;;
3601;SDS011;1815;50.950;6.920;2022-08-21T16:04:48;5.60;;;1.50;;
3601;SDS011;1815;50.950;6.920;2022-08-21T16:07:14;1.87;;;0.97;;
3601;SDS011;1815;50.950;6.920;2022-08-21T16:09:40;3.17;;;1.00;;
3601;SDS011;1815;50.950;6.920;2022-08-21T16:12:06;3.30;;;0.90;;
3601;SDS011;1815;50.950;6.920;2022-08-21T16:14:34;3.10;;;0.80;;
3601;SDS011;1815;50.950;6.920;2022-08-21T16:17:04;3.40;;;1.80;;
3601;SDS011;1815;50.950;6.920;2022-08-21T16:19:31;4.87;;;2.47;;
3601;SDS011;1815;50.950;6.920;2022-08-21T16:22:01;5.57;;;3.47;;
3601;SDS011;1815;50.950;6.920;2022-08-21T16:24:27;5.50;;;1.60;;
3601;SDS011;1815;50.950;6.920;2022-08-21T16:26:53;2.00;;;1.10;;
3601;SDS011;1815;50.950;6.920;2022-08-21T16:29:20;3.40;;;1.33;;
3601;SDS011;1815;50.950;6.920;2022-08-21T16:31:46;3.27;;;2.00;;
3601;SDS011;1815;50.950;6.920;2022-08-21T16:34:17;2.87;;;1.60;;
3601;SDS011;1815;50.950;6.920;2022-08-21T16:36:44;3.47;;;1.73;;
3601;SDS011;1815;50.950;6.920;2022-08-21T16:39:10;3.93;;;1.40;;
3601;SDS011;1815;50.950;6.920;2022-08-21T16:41:37;3.83;;;1.73;;
3601;SDS011;1815;50.950;6.920;2022-08-21T16:44:03;3.40;;;1.97;;
3601;SDS011;1815;50.950;6.920;2022-08-21T16:46:33;3.83;;;2.50;;
3601;SDS011;1815;50.950;6.920;2022-08-21T16:49:01;4.70;;;3.80;;